sensor_id;sensor_type;location;lat;lon;timestamp;P1;durP1;ratioP1;P2;durP2;ratioP2
17983;SDS011;9117;52.420;20.728;2022-10-16T00:02:23;23.98;;;13.63;;
17983;SDS011;9117;52.420;20.728;2022-10-16T00:04:51;23.20;;;13.30;;
17983;SDS011;9117;52.420;20.728;2022-10-16T00:07:20;24.05;;;12.63;;
17983;SDS011;9117;52.420;20.728;2022-10-16T00:09:49;19.80;;;11.40;;
17983;SDS011;9117;52.420;20.728;2022-10-16T00:12:17;21.80;;;11.85;;
17983;SDS011;9117;52.420;20.728;2022-10-16T00:14:45;19.80;;;11.20;;
17983;SDS011;9117;52.420;20.728;2022-10-16T00:17:13;19.85;;;11.38;;
17983;SDS011;9117;52.420;20.728;2022-10-16T00:19:42;18.75;;;11.57;;
17983;SDS011;9117;52.420;20.728;2022-10-16T00:22:10;19.00;;;11.63;;
17983;SDS011;9117;52.420;20.728;2022-10-16T00:24:38;23.48;;;12.20;;
17983;SDS011;9117;52.420;20.728;2022-10-16T00:27:06;17.38;;;10.90;;
17983;SDS011;9117;52.420;20.728;2022-10-16T00:29:36;20.10;;;12.10;;
17983;SDS011;9117;52.420;20.728;2022-10-16T00:32:04;23.20;;;13.07;;
17983;SDS011;9117;52.420;20.728;2022-10-16T00:34:32;22.90;;;11.52;;
17983;SDS011;9117;52.420;20.728;2022-10-16T00:37:02;16.95;;;11.00;;
17983;SDS011;9117;52.420;20.728;2022-10-16T00:39:30;19.23;;;11.55;;
17983;SDS011;9117;52.420;20.728;2022-10-16T00:41:58;18.25;;;11.10;;
17983;SDS011;9117;52.420;20.728;2022-10-16T00:44:42;21.75;;;10.80;;
17983;SDS011;9117;52.420;20.728;2022-10-16T00:47:15;16.85;;;10.52;;
17983;SDS011;9117;52.420;20.728;2022-10-16T00:49:47;19.70;;;10.60;;
17983;SDS011;9117;52.420;20.728;2022-10-16T00:52:18;22.33;;;11.20;;
17983;SDS011;9117;52.420;20.728;2022-10-16T00:54:46;17.52;;;10.85;;
17983;SDS011;9117;52.420;20.728;2022-10-16T00:57:17;18.77;;;11.30;;
17983;SDS011;9117;52.420;20.728;2022-10-16T00:59:45;19.95;;;11.10;;
17983;SDS011;9117;52.420;20.728;2022-10-16T01:02:14;19.27;;;11.05;;
17983;SDS011;9117;52.420;20.728;2022-10-16T01:04:44;16.98;;;10.77;;
17983;SDS011;9117;52.420;20.728;2022-10-16T01:07:14;16.30;;;10.85;;
17983;SDS011;9117;52.420;20.728;2022-10-16T01:09:54;18.38;;;10.90;;
17983;SDS011;9117;52.420;20.728;2022-10-16T01:12:32;17.05;;;11.48;;
17983;SDS011;9117;52.420;20.728;2022-10-16T01:15:14;19.77;;;11.30;;
17983;SDS011;9117;52.420;20.728;2022-10-16T01:17:47;19.58;;;11.10;;
17983;SDS011;9117;52.420;20.728;2022-10-16T01:20:21;17.33;;;10.80;;
17983;SDS011;9117;52.420;20.728;2022-10-16T01:22:59;21.23;;;11.35;;
17983;SDS011;9117;52.420;20.728;2022-10-16T01:25:36;20.27;;;10.65;;
17983;SDS011;9117;52.420;20.728;2022-10-16T01:28:17;17.70;;;11.13;;
17983;SDS011;9117;52.420;20.728;2022-10-16T01:30:49;17.55;;;10.70;;
17983;SDS011;9117;52.420;20.728;2022-10-16T01:33:22;22.95;;;11.85;;
17983;SDS011;9117;52.420;20.728;2022-10-16T01:35:55;18.98;;;11.57;;
17983;SDS011;9117;52.420;20.728;2022-10-16T01:38:30;19.35;;;11.35;;
17983;SDS011;9117;52.420;20.728;2022-10-16T01:41:02;18.60;;;10.45;;
17983;SDS011;9117;52.420;20.728;2022-10-16T01:43:36;19.90;;;10.68;;
17983;SDS011;9117;52.420;20.728;2022-10-16T01:46:07;18.52;;;11.65;;
17983;SDS011;9117;52.420;20.728;2022-10-16T01:48:37;19.00;;;11.48;;
17983;SDS011;9117;52.420;20.728;2022-10-16T01:51:07;18.85;;;11.43;;
17983;SDS011;9117;52.420;20.728;2022-10-16T01:53:38;19.75;;;11.52;;
17983;SDS011;9117;52.420;20.728;2022-10-16T01:56:09;18.40;;;11.30;;
17983;SDS011;9117;52.420;20.728;2022-10-16T01:58:42;21.45;;;12.05;;
17983;SDS011;9117;52.420;20.728;2022-10-16T02:01:13;22.40;;;11.93;;
17983;SDS011;9117;52.420;20.728;2022-10-16T02:03:44;20.38;;;12.15;;
17983;SDS011;9117;52.420;20.728;2022-10-16T02:06:14;22.15;;;12.63;;
17983;SDS011;9117;52.420;20.728;2022-10-16T02:08:41;20.95;;;11.95;;
17983;SDS011;9117;52.420;20.728;2022-10-16T02:11:10;24.92;;;12.40;;
17983;SDS011;9117;52.420;20.728;2022-10-16T02:13:39;21.73;;;12.57;;
17983;SDS011;9117;52.420;20.728;2022-10-16T02:16:12;21.52;;;12.15;;
17983;SDS011;9117;52.420;20.728;2022-10-16T02:18:41;20.10;;;12.10;;
17983;SDS011;9117;52.420;20.728;2022-10-16T02:21:12;19.52;;;11.95;;
17983;SDS011;9117;52.420;20.728;2022-10-16T02:23:45;19.70;;;12.05;;
17983;SDS011;9117;52.420;20.728;2022-10-16T02:26:19;22.25;;;12.75;;
17983;SDS011;9117;52.420;20.728;2022-10-16T02:28:58;22.02;;;12.05;;
17983;SDS011;9117;52.420;20.728;2022-10-16T02:31:32;20.30;;;12.07;;
17983;SDS011;9117;52.420;20.728;2022-10-16T02:34:03;20.92;;;11.82;;
17983;SDS011;9117;52.420;20.728;2022-10-16T02:36:32;20.90;;;12.13;;
17983;SDS011;9117;52.420;20.728;2022-10-16T02:39:02;19.80;;;11.77;;
17983;SDS011;9117;52.420;20.728;2022-10-16T02:41:31;23.52;;;11.48;;
17983;SDS011;9117;52.420;20.728;2022-10-16T02:43:59;21.00;;;12.52;;
17983;SDS011;9117;52.420;20.728;2022-10-16T02:46:27;22.63;;;12.35;;
17983;SDS011;9117;52.420;20.728;2022-10-16T02:48:57;19.75;;;12.00;;
17983;SDS011;9117;52.420;20.728;2022-10-16T02:51:25;21.85;;;11.93;;
17983;SDS011;9117;52.420;20.728;2022-10-16T02:53:53;21.20;;;11.73;;
17983;SDS011;9117;52.420;20.728;2022-10-16T02:56:20;22.58;;;12.10;;
17983;SDS011;9117;52.420;20.728;2022-10-16T02:58:48;21.92;;;12.30;;
17983;SDS011;9117;52.420;20.728;2022-10-16T03:01:17;21.98;;;12.23;;
17983;SDS011;9117;52.420;20.728;2022-10-16T03:03:45;20.05;;;11.90;;
17983;SDS011;9117;52.420;20.728;2022-10-16T03:06:14;22.58;;;12.35;;
17983;SDS011;9117;52.420;20.728;2022-10-16T03:08:42;25.60;;;11.40;;
17983;SDS011;9117;52.420;20.728;2022-10-16T03:11:10;23.30;;;12.43;;
17983;SDS011;9117;52.420;20.728;2022-10-16T03:13:38;28.38;;;12.30;;
17983;SDS011;9117;52.420;20.728;2022-10-16T03:16:06;19.38;;;12.43;;
17983;SDS011;9117;52.420;20.728;2022-10-16T03:18:34;21.45;;;12.73;;
17983;SDS011;9117;52.420;20.728;2022-10-16T03:21:02;26.88;;;12.32;;
17983;SDS011;9117;52.420;20.728;2022-10-16T03:23:31;20.40;;;12.45;;
17983;SDS011;9117;52.420;20.728;2022-10-16T03:25:59;25.48;;;12.93;;
17983;SDS011;9117;52.420;20.728;2022-10-16T03:28:27;20.05;;;11.43;;
17983;SDS011;9117;52.420;20.728;2022-10-16T03:30:55;23.38;;;13.48;;
17983;SDS011;9117;52.420;20.728;2022-10-16T03:33:23;20.15;;;12.73;;
17983;SDS011;9117;52.420;20.728;2022-10-16T03:35:51;24.40;;;13.45;;
17983;SDS011;9117;52.420;20.728;2022-10-16T03:38:20;21.30;;;12.65;;
17983;SDS011;9117;52.420;20.728;2022-10-16T03:40:50;23.85;;;13.35;;
17983;SDS011;9117;52.420;20.728;2022-10-16T03:43:18;23.58;;;13.00;;
17983;SDS011;9117;52.420;20.728;2022-10-16T03:45:46;28.15;;;12.65;;
17983;SDS011;9117;52.420;20.728;2022-10-16T03:48:14;22.88;;;13.48;;
17983;SDS011;9117;52.420;20.728;2022-10-16T03:50:42;22.55;;;13.35;;
17983;SDS011;9117;52.420;20.728;2022-10-16T03:53:10;22.77;;;12.63;;
17983;SDS011;9117;52.420;20.728;2022-10-16T03:55:38;27.95;;;14.20;;
17983;SDS011;9117;52.420;20.728;2022-10-16T03:58:09;24.80;;;13.38;;
17983;SDS011;9117;52.420;20.728;2022-10-16T04:00:39;22.48;;;12.70;;
17983;SDS011;9117;52.420;20.728;2022-10-16T04:03:07;21.67;;;13.45;;
17983;SDS011;9117;52.420;20.728;2022-10-16T04:05:36;27.40;;;13.90;;
17983;SDS011;9117;52.420;20.728;2022-10-16T04:08:04;24.63;;;13.18;;
17983;SDS011;9117;52.420;20.728;2022-10-16T04:10:32;22.83;;;13.95;;
17983;SDS011;9117;52.420;20.728;2022-10-16T04:13:00;24.85;;;13.35;;
17983;SDS011;9117;52.420;20.728;2022-10-16T04:15:29;23.63;;;13.93;;
17983;SDS011;9117;52.420;20.728;2022-10-16T04:17:57;21.65;;;13.00;;
17983;SDS011;9117;52.420;20.728;2022-10-16T04:20:25;23.63;;;14.05;;
17983;SDS011;9117;52.420;20.728;2022-10-16T04:22:53;24.80;;;13.57;;
17983;SDS011;9117;52.420;20.728;2022-10-16T04:25:21;22.92;;;13.50;;
17983;SDS011;9117;52.420;20.728;2022-10-16T04:27:49;22.63;;;13.02;;
17983;SDS011;9117;52.420;20.728;2022-10-16T04:30:19;25.40;;;14.27;;
17983;SDS011;9117;52.420;20.728;2022-10-16T04:32:49;23.08;;;12.88;;
17983;SDS011;9117;52.420;20.728;2022-10-16T04:35:17;22.75;;;13.30;;
17983;SDS011;9117;52.420;20.728;2022-10-16T04:37:45;29.25;;;14.00;;
17983;SDS011;9117;52.420;20.728;2022-10-16T04:40:13;26.98;;;13.73;;
17983;SDS011;9117;52.420;20.728;2022-10-16T04:42:41;26.38;;;14.20;;
17983;SDS011;9117;52.420;20.728;2022-10-16T04:45:09;22.83;;;13.38;;
17983;SDS011;9117;52.420;20.728;2022-10-16T04:47:42;27.17;;;15.32;;
17983;SDS011;9117;52.420;20.728;2022-10-16T04:50:11;26.17;;;13.98;;
17983;SDS011;9117;52.420;20.728;2022-10-16T04:52:39;23.08;;;13.45;;
17983;SDS011;9117;52.420;20.728;2022-10-16T04:55:07;25.58;;;14.30;;
17983;SDS011;9117;52.420;20.728;2022-10-16T04:57:35;26.50;;;15.13;;
17983;SDS011;9117;52.420;20.728;2022-10-16T05:00:03;23.85;;;14.43;;
17983;SDS011;9117;52.420;20.728;2022-10-16T05:02:35;29.60;;;15.38;;
17983;SDS011;9117;52.420;20.728;2022-10-16T05:05:03;26.05;;;15.18;;
17983;SDS011;9117;52.420;20.728;2022-10-16T05:07:33;25.17;;;14.45;;
17983;SDS011;9117;52.420;20.728;2022-10-16T05:10:01;31.38;;;15.73;;
17983;SDS011;9117;52.420;20.728;2022-10-16T05:12:29;25.83;;;14.57;;
17983;SDS011;9117;52.420;20.728;2022-10-16T05:14:57;26.30;;;14.80;;
17983;SDS011;9117;52.420;20.728;2022-10-16T05:17:25;23.83;;;14.15;;
17983;SDS011;9117;52.420;20.728;2022-10-16T05:19:54;24.63;;;14.07;;
17983;SDS011;9117;52.420;20.728;2022-10-16T05:22:22;34.65;;;16.48;;
17983;SDS011;9117;52.420;20.728;2022-10-16T05:24:51;31.33;;;14.73;;
17983;SDS011;9117;52.420;20.728;2022-10-16T05:27:19;25.02;;;14.88;;
17983;SDS011;9117;52.420;20.728;2022-10-16T05:29:47;27.27;;;15.65;;
17983;SDS011;9117;52.420;20.728;2022-10-16T05:32:17;28.73;;;14.93;;
17983;SDS011;9117;52.420;20.728;2022-10-16T05:34:45;26.45;;;15.13;;
17983;SDS011;9117;52.420;20.728;2022-10-16T05:37:13;29.60;;;15.88;;
17983;SDS011;9117;52.420;20.728;2022-10-16T05:39:41;26.88;;;14.93;;
17983;SDS011;9117;52.420;20.728;2022-10-16T05:42:10;25.77;;;14.38;;
17983;SDS011;9117;52.420;20.728;2022-10-16T05:44:38;24.63;;;14.60;;
17983;SDS011;9117;52.420;20.728;2022-10-16T05:47:06;27.55;;;15.43;;
17983;SDS011;9117;52.420;20.728;2022-10-16T05:49:34;30.38;;;15.02;;
17983;SDS011;9117;52.420;20.728;2022-10-16T05:52:06;25.45;;;14.57;;
17983;SDS011;9117;52.420;20.728;2022-10-16T05:54:34;25.98;;;15.23;;
17983;SDS011;9117;52.420;20.728;2022-10-16T05:57:02;30.42;;;15.25;;
17983;SDS011;9117;52.420;20.728;2022-10-16T05:59:33;28.77;;;15.88;;
17983;SDS011;9117;52.420;20.728;2022-10-16T06:02:01;28.83;;;14.75;;
17983;SDS011;9117;52.420;20.728;2022-10-16T06:04:29;27.92;;;15.90;;
17983;SDS011;9117;52.420;20.728;2022-10-16T06:06:59;30.27;;;15.52;;
17983;SDS011;9117;52.420;20.728;2022-10-16T06:09:27;26.05;;;15.13;;
17983;SDS011;9117;52.420;20.728;2022-10-16T06:11:55;27.10;;;15.75;;
17983;SDS011;9117;52.420;20.728;2022-10-16T06:14:24;26.88;;;15.90;;
17983;SDS011;9117;52.420;20.728;2022-10-16T06:16:53;29.52;;;15.40;;
17983;SDS011;9117;52.420;20.728;2022-10-16T06:19:21;26.52;;;15.55;;
17983;SDS011;9117;52.420;20.728;2022-10-16T06:21:49;27.30;;;15.27;;
17983;SDS011;9117;52.420;20.728;2022-10-16T06:24:17;23.67;;;14.38;;
17983;SDS011;9117;52.420;20.728;2022-10-16T06:26:45;27.15;;;15.05;;
17983;SDS011;9117;52.420;20.728;2022-10-16T06:29:13;26.25;;;14.65;;
17983;SDS011;9117;52.420;20.728;2022-10-16T06:31:41;26.65;;;14.63;;
17983;SDS011;9117;52.420;20.728;2022-10-16T06:34:10;26.45;;;15.02;;
17983;SDS011;9117;52.420;20.728;2022-10-16T06:36:38;20.80;;;13.40;;
17983;SDS011;9117;52.420;20.728;2022-10-16T06:39:07;25.48;;;14.40;;
17983;SDS011;9117;52.420;20.728;2022-10-16T06:41:35;27.27;;;14.73;;
17983;SDS011;9117;52.420;20.728;2022-10-16T06:44:05;22.15;;;13.30;;
17983;SDS011;9117;52.420;20.728;2022-10-16T06:46:33;24.10;;;14.45;;
17983;SDS011;9117;52.420;20.728;2022-10-16T06:49:01;28.15;;;13.73;;
17983;SDS011;9117;52.420;20.728;2022-10-16T06:51:31;23.23;;;13.63;;
17983;SDS011;9117;52.420;20.728;2022-10-16T06:54:05;24.05;;;13.73;;
17983;SDS011;9117;52.420;20.728;2022-10-16T06:56:33;27.95;;;14.15;;
17983;SDS011;9117;52.420;20.728;2022-10-16T06:59:02;27.40;;;14.20;;
17983;SDS011;9117;52.420;20.728;2022-10-16T07:01:30;24.10;;;14.27;;
17983;SDS011;9117;52.420;20.728;2022-10-16T07:03:59;28.58;;;14.27;;
17983;SDS011;9117;52.420;20.728;2022-10-16T07:06:30;21.90;;;13.52;;
17983;SDS011;9117;52.420;20.728;2022-10-16T07:09:01;20.33;;;12.70;;
17983;SDS011;9117;52.420;20.728;2022-10-16T07:11:31;29.02;;;13.93;;
17983;SDS011;9117;52.420;20.728;2022-10-16T07:14:00;28.38;;;15.70;;
17983;SDS011;9117;52.420;20.728;2022-10-16T07:16:28;24.90;;;13.93;;
17983;SDS011;9117;52.420;20.728;2022-10-16T07:18:58;21.88;;;13.13;;
17983;SDS011;9117;52.420;20.728;2022-10-16T07:21:28;27.17;;;13.77;;
17983;SDS011;9117;52.420;20.728;2022-10-16T07:24:03;24.35;;;13.07;;
17983;SDS011;9117;52.420;20.728;2022-10-16T07:26:33;21.85;;;12.85;;
17983;SDS011;9117;52.420;20.728;2022-10-16T07:29:02;21.08;;;12.85;;
17983;SDS011;9117;52.420;20.728;2022-10-16T07:31:30;19.40;;;12.93;;
17983;SDS011;9117;52.420;20.728;2022-10-16T07:33:59;25.33;;;13.13;;
17983;SDS011;9117;52.420;20.728;2022-10-16T07:36:27;23.40;;;13.23;;
17983;SDS011;9117;52.420;20.728;2022-10-16T07:38:55;23.23;;;12.70;;
17983;SDS011;9117;52.420;20.728;2022-10-16T07:41:27;21.48;;;13.02;;
17983;SDS011;9117;52.420;20.728;2022-10-16T07:43:55;20.40;;;12.00;;
17983;SDS011;9117;52.420;20.728;2022-10-16T07:46:26;21.00;;;12.73;;
17983;SDS011;9117;52.420;20.728;2022-10-16T07:48:55;23.98;;;13.05;;
17983;SDS011;9117;52.420;20.728;2022-10-16T07:51:24;21.50;;;12.48;;
17983;SDS011;9117;52.420;20.728;2022-10-16T07:53:53;18.70;;;12.68;;
17983;SDS011;9117;52.420;20.728;2022-10-16T07:56:21;22.77;;;12.70;;
17983;SDS011;9117;52.420;20.728;2022-10-16T07:58:51;22.67;;;13.02;;
17983;SDS011;9117;52.420;20.728;2022-10-16T08:01:19;24.60;;;12.75;;
17983;SDS011;9117;52.420;20.728;2022-10-16T08:03:49;19.15;;;11.75;;
17983;SDS011;9117;52.420;20.728;2022-10-16T08:06:18;24.42;;;13.43;;
17983;SDS011;9117;52.420;20.728;2022-10-16T08:08:53;20.83;;;12.60;;
17983;SDS011;9117;52.420;20.728;2022-10-16T08:11:21;20.20;;;12.00;;
17983;SDS011;9117;52.420;20.728;2022-10-16T08:13:51;19.08;;;12.02;;
17983;SDS011;9117;52.420;20.728;2022-10-16T08:16:19;21.77;;;13.05;;
17983;SDS011;9117;52.420;20.728;2022-10-16T08:18:47;20.27;;;12.52;;
17983;SDS011;9117;52.420;20.728;2022-10-16T08:21:18;20.88;;;12.45;;
17983;SDS011;9117;52.420;20.728;2022-10-16T08:23:49;19.38;;;12.20;;
17983;SDS011;9117;52.420;20.728;2022-10-16T08:26:23;20.55;;;12.48;;
17983;SDS011;9117;52.420;20.728;2022-10-16T08:28:53;20.08;;;12.32;;
17983;SDS011;9117;52.420;20.728;2022-10-16T08:31:21;22.90;;;12.40;;
17983;SDS011;9117;52.420;20.728;2022-10-16T08:33:50;19.60;;;11.85;;
17983;SDS011;9117;52.420;20.728;2022-10-16T08:36:18;21.42;;;11.98;;
17983;SDS011;9117;52.420;20.728;2022-10-16T08:38:47;21.15;;;12.32;;
17983;SDS011;9117;52.420;20.728;2022-10-16T08:41:22;20.80;;;12.32;;
17983;SDS011;9117;52.420;20.728;2022-10-16T08:44:14;17.90;;;11.85;;
17983;SDS011;9117;52.420;20.728;2022-10-16T08:47:06;21.25;;;12.18;;
17983;SDS011;9117;52.420;20.728;2022-10-16T08:49:41;18.08;;;11.82;;
17983;SDS011;9117;52.420;20.728;2022-10-16T08:52:17;18.42;;;11.85;;
17983;SDS011;9117;52.420;20.728;2022-10-16T08:54:45;21.25;;;11.73;;
17983;SDS011;9117;52.420;20.728;2022-10-16T08:57:19;26.90;;;12.43;;
17983;SDS011;9117;52.420;20.728;2022-10-16T08:59:52;18.70;;;12.18;;
17983;SDS011;9117;52.420;20.728;2022-10-16T09:02:24;21.90;;;11.63;;
17983;SDS011;9117;52.420;20.728;2022-10-16T09:05:02;21.02;;;11.70;;
17983;SDS011;9117;52.420;20.728;2022-10-16T09:07:45;20.25;;;12.90;;
17983;SDS011;9117;52.420;20.728;2022-10-16T09:10:24;19.58;;;11.85;;
17983;SDS011;9117;52.420;20.728;2022-10-16T09:13:01;24.20;;;11.57;;
17983;SDS011;9117;52.420;20.728;2022-10-16T09:15:39;18.15;;;11.20;;
17983;SDS011;9117;52.420;20.728;2022-10-16T09:18:15;20.55;;;11.73;;
17983;SDS011;9117;52.420;20.728;2022-10-16T09:20:52;19.60;;;11.63;;
17983;SDS011;9117;52.420;20.728;2022-10-16T09:23:26;21.98;;;10.80;;
17983;SDS011;9117;52.420;20.728;2022-10-16T09:25:56;21.17;;;11.63;;
17983;SDS011;9117;52.420;20.728;2022-10-16T09:28:26;15.70;;;10.93;;
17983;SDS011;9117;52.420;20.728;2022-10-16T09:30:55;16.90;;;11.32;;
17983;SDS011;9117;52.420;20.728;2022-10-16T09:33:24;20.48;;;11.60;;
17983;SDS011;9117;52.420;20.728;2022-10-16T09:35:56;16.90;;;10.63;;
17983;SDS011;9117;52.420;20.728;2022-10-16T09:38:26;17.60;;;9.88;;
17983;SDS011;9117;52.420;20.728;2022-10-16T09:40:55;18.23;;;10.10;;
17983;SDS011;9117;52.420;20.728;2022-10-16T09:43:30;16.65;;;10.35;;
17983;SDS011;9117;52.420;20.728;2022-10-16T09:46:04;17.25;;;9.50;;
17983;SDS011;9117;52.420;20.728;2022-10-16T09:48:36;16.17;;;10.15;;
17983;SDS011;9117;52.420;20.728;2022-10-16T09:51:13;18.08;;;10.52;;
17983;SDS011;9117;52.420;20.728;2022-10-16T09:53:46;16.42;;;10.13;;
17983;SDS011;9117;52.420;20.728;2022-10-16T09:56:21;19.10;;;10.13;;
17983;SDS011;9117;52.420;20.728;2022-10-16T09:58:50;16.92;;;10.07;;
17983;SDS011;9117;52.420;20.728;2022-10-16T10:01:20;14.98;;;9.82;;
17983;SDS011;9117;52.420;20.728;2022-10-16T10:03:55;14.18;;;9.93;;
17983;SDS011;9117;52.420;20.728;2022-10-16T10:06:28;18.33;;;10.13;;
17983;SDS011;9117;52.420;20.728;2022-10-16T10:08:58;16.17;;;10.27;;
17983;SDS011;9117;52.420;20.728;2022-10-16T10:11:42;16.52;;;9.90;;
17983;SDS011;9117;52.420;20.728;2022-10-16T10:14:20;20.90;;;10.15;;
17983;SDS011;9117;52.420;20.728;2022-10-16T10:16:52;14.27;;;9.02;;
17983;SDS011;9117;52.420;20.728;2022-10-16T10:19:28;15.60;;;9.70;;
17983;SDS011;9117;52.420;20.728;2022-10-16T10:21:58;14.70;;;8.90;;
17983;SDS011;9117;52.420;20.728;2022-10-16T10:24:26;16.15;;;9.85;;
17983;SDS011;9117;52.420;20.728;2022-10-16T10:26:55;16.80;;;9.95;;
17983;SDS011;9117;52.420;20.728;2022-10-16T10:29:36;15.57;;;9.77;;
17983;SDS011;9117;52.420;20.728;2022-10-16T10:32:19;18.50;;;9.73;;
17983;SDS011;9117;52.420;20.728;2022-10-16T10:35:05;15.80;;;9.70;;
17983;SDS011;9117;52.420;20.728;2022-10-16T10:37:45;14.45;;;9.73;;
17983;SDS011;9117;52.420;20.728;2022-10-16T10:40:27;17.25;;;9.52;;
17983;SDS011;9117;52.420;20.728;2022-10-16T10:43:04;16.15;;;9.40;;
17983;SDS011;9117;52.420;20.728;2022-10-16T10:45:38;18.98;;;10.20;;
17983;SDS011;9117;52.420;20.728;2022-10-16T10:48:16;17.27;;;10.57;;
17983;SDS011;9117;52.420;20.728;2022-10-16T10:50:50;19.63;;;10.35;;
17983;SDS011;9117;52.420;20.728;2022-10-16T10:53:25;16.33;;;9.80;;
17983;SDS011;9117;52.420;20.728;2022-10-16T10:56:07;15.77;;;10.10;;
17983;SDS011;9117;52.420;20.728;2022-10-16T10:58:50;16.13;;;10.45;;
17983;SDS011;9117;52.420;20.728;2022-10-16T11:01:31;14.60;;;9.82;;
17983;SDS011;9117;52.420;20.728;2022-10-16T11:04:12;16.45;;;10.23;;
17983;SDS011;9117;52.420;20.728;2022-10-16T11:07:00;20.50;;;9.93;;
17983;SDS011;9117;52.420;20.728;2022-10-16T11:09:32;16.60;;;10.82;;
17983;SDS011;9117;52.420;20.728;2022-10-16T11:12:05;17.30;;;10.98;;
17983;SDS011;9117;52.420;20.728;2022-10-16T11:14:40;15.35;;;10.25;;
17983;SDS011;9117;52.420;20.728;2022-10-16T11:17:13;15.60;;;9.75;;
17983;SDS011;9117;52.420;20.728;2022-10-16T11:19:48;15.55;;;10.32;;
17983;SDS011;9117;52.420;20.728;2022-10-16T11:22:22;15.45;;;10.00;;
17983;SDS011;9117;52.420;20.728;2022-10-16T11:24:59;17.15;;;10.20;;
17983;SDS011;9117;52.420;20.728;2022-10-16T11:27:35;15.60;;;9.65;;
17983;SDS011;9117;52.420;20.728;2022-10-16T11:30:06;14.32;;;9.43;;
17983;SDS011;9117;52.420;20.728;2022-10-16T11:32:47;14.88;;;9.90;;
17983;SDS011;9117;52.420;20.728;2022-10-16T11:35:24;17.00;;;10.32;;
17983;SDS011;9117;52.420;20.728;2022-10-16T11:38:07;19.92;;;10.15;;
17983;SDS011;9117;52.420;20.728;2022-10-16T11:40:40;18.83;;;10.32;;
17983;SDS011;9117;52.420;20.728;2022-10-16T11:43:14;17.05;;;9.75;;
17983;SDS011;9117;52.420;20.728;2022-10-16T11:45:48;18.65;;;10.00;;
17983;SDS011;9117;52.420;20.728;2022-10-16T11:48:21;16.02;;;9.90;;
17983;SDS011;9117;52.420;20.728;2022-10-16T11:50:56;14.02;;;9.55;;
17983;SDS011;9117;52.420;20.728;2022-10-16T11:53:32;14.73;;;9.13;;
17983;SDS011;9117;52.420;20.728;2022-10-16T11:56:08;19.70;;;9.85;;
17983;SDS011;9117;52.420;20.728;2022-10-16T11:58:41;13.40;;;8.43;;
17983;SDS011;9117;52.420;20.728;2022-10-16T12:01:20;15.80;;;9.00;;
17983;SDS011;9117;52.420;20.728;2022-10-16T12:03:58;17.30;;;9.63;;
17983;SDS011;9117;52.420;20.728;2022-10-16T12:06:44;15.55;;;9.73;;
17983;SDS011;9117;52.420;20.728;2022-10-16T12:09:20;15.05;;;9.80;;
17983;SDS011;9117;52.420;20.728;2022-10-16T12:11:51;16.02;;;9.65;;
17983;SDS011;9117;52.420;20.728;2022-10-16T12:14:22;14.07;;;9.38;;
17983;SDS011;9117;52.420;20.728;2022-10-16T12:17:24;14.45;;;9.18;;
17983;SDS011;9117;52.420;20.728;2022-10-16T12:19:57;17.40;;;10.38;;
17983;SDS011;9117;52.420;20.728;2022-10-16T12:22:28;12.93;;;9.35;;
17983;SDS011;9117;52.420;20.728;2022-10-16T12:25:00;15.52;;;9.13;;
17983;SDS011;9117;52.420;20.728;2022-10-16T12:27:28;12.60;;;8.05;;
17983;SDS011;9117;52.420;20.728;2022-10-16T12:29:58;16.52;;;9.30;;
17983;SDS011;9117;52.420;20.728;2022-10-16T12:32:29;12.13;;;7.80;;
17983;SDS011;9117;52.420;20.728;2022-10-16T12:35:17;17.30;;;8.35;;
17983;SDS011;9117;52.420;20.728;2022-10-16T12:37:49;11.80;;;7.80;;
17983;SDS011;9117;52.420;20.728;2022-10-16T12:40:24;13.30;;;8.80;;
17983;SDS011;9117;52.420;20.728;2022-10-16T12:42:54;14.77;;;8.95;;
17983;SDS011;9117;52.420;20.728;2022-10-16T12:45:23;13.80;;;8.50;;
17983;SDS011;9117;52.420;20.728;2022-10-16T12:47:57;17.85;;;9.50;;
17983;SDS011;9117;52.420;20.728;2022-10-16T12:50:27;11.75;;;8.15;;
17983;SDS011;9117;52.420;20.728;2022-10-16T12:52:59;16.00;;;9.63;;
17983;SDS011;9117;52.420;20.728;2022-10-16T12:55:31;12.95;;;8.70;;
17983;SDS011;9117;52.420;20.728;2022-10-16T12:58:13;14.52;;;9.43;;
17983;SDS011;9117;52.420;20.728;2022-10-16T13:00:54;12.45;;;8.13;;
17983;SDS011;9117;52.420;20.728;2022-10-16T13:03:28;13.40;;;8.95;;
17983;SDS011;9117;52.420;20.728;2022-10-16T13:06:18;15.80;;;9.13;;
17983;SDS011;9117;52.420;20.728;2022-10-16T13:09:00;17.17;;;9.60;;
17983;SDS011;9117;52.420;20.728;2022-10-16T13:11:43;12.90;;;9.38;;
17983;SDS011;9117;52.420;20.728;2022-10-16T13:14:22;15.98;;;9.57;;
17983;SDS011;9117;52.420;20.728;2022-10-16T13:17:06;20.58;;;8.88;;
17983;SDS011;9117;52.420;20.728;2022-10-16T13:19:44;13.82;;;9.00;;
17983;SDS011;9117;52.420;20.728;2022-10-16T13:22:21;13.90;;;8.77;;
17983;SDS011;9117;52.420;20.728;2022-10-16T13:24:58;16.15;;;9.48;;
17983;SDS011;9117;52.420;20.728;2022-10-16T13:27:42;16.77;;;8.82;;
17983;SDS011;9117;52.420;20.728;2022-10-16T13:30:18;18.77;;;10.38;;
17983;SDS011;9117;52.420;20.728;2022-10-16T13:32:56;17.10;;;9.85;;
17983;SDS011;9117;52.420;20.728;2022-10-16T13:35:29;15.50;;;9.23;;
17983;SDS011;9117;52.420;20.728;2022-10-16T13:38:11;13.90;;;9.68;;
17983;SDS011;9117;52.420;20.728;2022-10-16T13:40:52;15.63;;;9.77;;
17983;SDS011;9117;52.420;20.728;2022-10-16T13:43:23;15.68;;;9.65;;
17983;SDS011;9117;52.420;20.728;2022-10-16T13:45:55;15.88;;;10.38;;
17983;SDS011;9117;52.420;20.728;2022-10-16T13:48:24;18.27;;;9.50;;
17983;SDS011;9117;52.420;20.728;2022-10-16T13:51:02;19.08;;;9.90;;
17983;SDS011;9117;52.420;20.728;2022-10-16T13:53:33;18.27;;;10.35;;
17983;SDS011;9117;52.420;20.728;2022-10-16T13:56:04;16.85;;;10.15;;
17983;SDS011;9117;52.420;20.728;2022-10-16T13:58:33;18.33;;;10.68;;
17983;SDS011;9117;52.420;20.728;2022-10-16T14:01:02;13.80;;;9.60;;
17983;SDS011;9117;52.420;20.728;2022-10-16T14:03:32;16.73;;;9.82;;
17983;SDS011;9117;52.420;20.728;2022-10-16T14:06:02;17.33;;;10.15;;
17983;SDS011;9117;52.420;20.728;2022-10-16T14:08:35;16.83;;;10.63;;
17983;SDS011;9117;52.420;20.728;2022-10-16T14:11:04;15.10;;;9.63;;
17983;SDS011;9117;52.420;20.728;2022-10-16T14:13:33;17.02;;;10.23;;
17983;SDS011;9117;52.420;20.728;2022-10-16T14:16:05;17.10;;;9.93;;
17983;SDS011;9117;52.420;20.728;2022-10-16T14:18:36;13.00;;;9.13;;
17983;SDS011;9117;52.420;20.728;2022-10-16T14:21:06;17.67;;;10.32;;
17983;SDS011;9117;52.420;20.728;2022-10-16T14:23:39;17.17;;;9.82;;
17983;SDS011;9117;52.420;20.728;2022-10-16T14:26:18;20.38;;;10.00;;
17983;SDS011;9117;52.420;20.728;2022-10-16T14:28:48;16.42;;;9.38;;
17983;SDS011;9117;52.420;20.728;2022-10-16T14:31:29;18.17;;;9.80;;
17983;SDS011;9117;52.420;20.728;2022-10-16T14:33:58;16.50;;;9.73;;
17983;SDS011;9117;52.420;20.728;2022-10-16T14:36:26;17.00;;;10.00;;
17983;SDS011;9117;52.420;20.728;2022-10-16T14:39:02;15.35;;;9.48;;
17983;SDS011;9117;52.420;20.728;2022-10-16T14:41:40;17.27;;;9.88;;
17983;SDS011;9117;52.420;20.728;2022-10-16T14:44:10;19.60;;;9.45;;
17983;SDS011;9117;52.420;20.728;2022-10-16T14:46:40;17.15;;;10.07;;
17983;SDS011;9117;52.420;20.728;2022-10-16T14:49:13;17.23;;;9.55;;
17983;SDS011;9117;52.420;20.728;2022-10-16T14:51:43;17.73;;;9.70;;